sensor_id;sensor_type;location;lat;lon;timestamp;P1;durP1;ratioP1;P2;durP2;ratioP2
57718;SDS011;43561;50.090;18.522;2023-03-15T00:08:12;4.05;;;1.65;;
57718;SDS011;43561;50.090;18.522;2023-03-15T00:18:16;8.73;;;2.08;;
57718;SDS011;43561;50.090;18.522;2023-03-15T00:28:19;5.30;;;1.55;;
57718;SDS011;43561;50.090;18.522;2023-03-15T00:38:22;10.15;;;3.20;;
57718;SDS011;43561;50.090;18.522;2023-03-15T00:48:24;19.92;;;3.25;;
57718;SDS011;43561;50.090;18.522;2023-03-15T00:58:25;9.80;;;2.50;;
57718;SDS011;43561;50.090;18.522;2023-03-15T01:08:27;5.15;;;2.15;;
57718;SDS011;43561;50.090;18.522;2023-03-15T01:18:29;4.32;;;1.95;;
57718;SDS011;43561;50.090;18.522;2023-03-15T01:28:31;6.20;;;1.88;;
57718;SDS011;43561;50.090;18.522;2023-03-15T01:38:34;3.00;;;2.08;;
57718;SDS011;43561;50.090;18.522;2023-03-15T01:48:42;6.97;;;2.45;;
57718;SDS011;43561;50.090;18.522;2023-03-15T01:58:54;4.32;;;3.10;;
57718;SDS011;43561;50.090;18.522;2023-03-15T02:08:59;10.02;;;3.05;;
57718;SDS011;43561;50.090;18.522;2023-03-15T02:19:17;7.93;;;3.17;;
57718;SDS011;43561;50.090;18.522;2023-03-15T02:29:44;22.63;;;5.75;;
57718;SDS011;43561;50.090;18.522;2023-03-15T02:39:46;4.82;;;2.08;;
57718;SDS011;43561;50.090;18.522;2023-03-15T02:49:49;8.13;;;3.22;;
57718;SDS011;43561;50.090;18.522;2023-03-15T02:59:52;6.20;;;3.15;;
57718;SDS011;43561;50.090;18.522;2023-03-15T03:09:54;7.28;;;1.90;;
57718;SDS011;43561;50.090;18.522;2023-03-15T03:19:56;9.57;;;2.75;;
57718;SDS011;43561;50.090;18.522;2023-03-15T03:30:07;5.45;;;3.70;;
57718;SDS011;43561;50.090;18.522;2023-03-15T03:40:14;19.63;;;5.72;;
57718;SDS011;43561;50.090;18.522;2023-03-15T03:50:17;7.88;;;5.82;;
57718;SDS011;43561;50.090;18.522;2023-03-15T04:00:19;11.98;;;4.38;;
57718;SDS011;43561;50.090;18.522;2023-03-15T04:10:21;13.18;;;5.43;;
57718;SDS011;43561;50.090;18.522;2023-03-15T04:20:24;3.97;;;2.88;;
57718;SDS011;43561;50.090;18.522;2023-03-15T04:30:27;12.52;;;7.63;;
57718;SDS011;43561;50.090;18.522;2023-03-15T04:40:48;8.23;;;3.08;;
57718;SDS011;43561;50.090;18.522;2023-03-15T04:51:10;5.15;;;2.88;;
57718;SDS011;43561;50.090;18.522;2023-03-15T05:01:30;7.47;;;2.88;;
57718;SDS011;43561;50.090;18.522;2023-03-15T05:11:48;13.13;;;3.22;;
57718;SDS011;43561;50.090;18.522;2023-03-15T05:22:05;8.68;;;3.50;;
57718;SDS011;43561;50.090;18.522;2023-03-15T05:32:30;8.77;;;4.43;;
57718;SDS011;43561;50.090;18.522;2023-03-15T05:42:55;17.63;;;4.55;;
57718;SDS011;43561;50.090;18.522;2023-03-15T05:53:04;3.10;;;2.13;;
57718;SDS011;43561;50.090;18.522;2023-03-15T06:03:24;2.53;;;2.20;;
57718;SDS011;43561;50.090;18.522;2023-03-15T06:13:33;11.53;;;3.53;;
57718;SDS011;43561;50.090;18.522;2023-03-15T06:23:40;4.70;;;3.60;;
57718;SDS011;43561;50.090;18.522;2023-03-15T06:33:43;12.70;;;7.88;;
57718;SDS011;43561;50.090;18.522;2023-03-15T06:43:45;7.75;;;3.75;;
57718;SDS011;43561;50.090;18.522;2023-03-15T06:53:48;17.83;;;4.45;;
57718;SDS011;43561;50.090;18.522;2023-03-15T07:03:51;12.23;;;3.35;;
57718;SDS011;43561;50.090;18.522;2023-03-15T07:13:53;9.23;;;3.80;;
57718;SDS011;43561;50.090;18.522;2023-03-15T07:23:55;20.90;;;5.10;;
57718;SDS011;43561;50.090;18.522;2023-03-15T07:33:57;10.50;;;5.55;;
57718;SDS011;43561;50.090;18.522;2023-03-15T07:43:59;6.40;;;3.55;;
57718;SDS011;43561;50.090;18.522;2023-03-15T07:54:01;14.80;;;4.82;;
57718;SDS011;43561;50.090;18.522;2023-03-15T08:04:03;8.15;;;2.60;;
57718;SDS011;43561;50.090;18.522;2023-03-15T08:14:05;20.92;;;5.57;;
57718;SDS011;43561;50.090;18.522;2023-03-15T08:24:07;17.30;;;4.43;;
57718;SDS011;43561;50.090;18.522;2023-03-15T08:34:09;1.85;;;1.65;;
57718;SDS011;43561;50.090;18.522;2023-03-15T08:44:10;16.55;;;5.00;;
57718;SDS011;43561;50.090;18.522;2023-03-15T08:54:12;11.25;;;2.80;;
57718;SDS011;43561;50.090;18.522;2023-03-15T09:04:14;9.48;;;2.22;;
57718;SDS011;43561;50.090;18.522;2023-03-15T09:14:16;6.95;;;2.78;;
57718;SDS011;43561;50.090;18.522;2023-03-15T09:24:18;9.85;;;3.90;;
57718;SDS011;43561;50.090;18.522;2023-03-15T09:34:21;9.98;;;3.60;;
57718;SDS011;43561;50.090;18.522;2023-03-15T09:54:56;5.25;;;3.13;;
57718;SDS011;43561;50.090;18.522;2023-03-15T10:05:05;4.38;;;3.35;;
57718;SDS011;43561;50.090;18.522;2023-03-15T10:15:22;5.50;;;3.17;;
57718;SDS011;43561;50.090;18.522;2023-03-15T10:25:25;4.45;;;2.53;;
57718;SDS011;43561;50.090;18.522;2023-03-15T10:35:27;8.75;;;2.28;;
57718;SDS011;43561;50.090;18.522;2023-03-15T10:45:29;1.60;;;0.98;;
57718;SDS011;43561;50.090;18.522;2023-03-15T10:55:33;6.60;;;2.42;;
57718;SDS011;43561;50.090;18.522;2023-03-15T11:05:41;9.77;;;3.85;;
57718;SDS011;43561;50.090;18.522;2023-03-15T11:15:53;19.08;;;5.20;;
57718;SDS011;43561;50.090;18.522;2023-03-15T11:26:01;16.42;;;7.28;;
57718;SDS011;43561;50.090;18.522;2023-03-15T11:36:04;9.20;;;5.53;;
57718;SDS011;43561;50.090;18.522;2023-03-15T11:46:20;12.90;;;4.67;;
57718;SDS011;43561;50.090;18.522;2023-03-15T11:56:43;12.23;;;5.85;;
57718;SDS011;43561;50.090;18.522;2023-03-15T12:27:24;10.55;;;4.47;;
57718;SDS011;43561;50.090;18.522;2023-03-15T12:37:38;16.17;;;5.20;;
57718;SDS011;43561;50.090;18.522;2023-03-15T12:47:45;20.15;;;7.60;;
57718;SDS011;43561;50.090;18.522;2023-03-15T12:58:09;5.25;;;3.15;;
57718;SDS011;43561;50.090;18.522;2023-03-15T13:08:36;19.00;;;9.68;;
57718;SDS011;43561;50.090;18.522;2023-03-15T13:29:13;14.20;;;7.10;;
57718;SDS011;43561;50.090;18.522;2023-03-15T13:49:33;7.10;;;5.00;;
57718;SDS011;43561;50.090;18.522;2023-03-15T14:20:13;6.00;;;3.40;;
57718;SDS011;43561;50.090;18.522;2023-03-15T14:30:17;15.20;;;6.30;;
57718;SDS011;43561;50.090;18.522;2023-03-15T14:40:28;9.98;;;3.40;;
57718;SDS011;43561;50.090;18.522;2023-03-15T14:50:32;18.17;;;5.57;;
57718;SDS011;43561;50.090;18.522;2023-03-15T15:00:37;2.88;;;2.53;;
57718;SDS011;43561;50.090;18.522;2023-03-15T15:10:40;3.33;;;2.15;;
57718;SDS011;43561;50.090;18.522;2023-03-15T15:20:43;3.05;;;2.13;;
57718;SDS011;43561;50.090;18.522;2023-03-15T15:30:46;11.90;;;2.47;;
57718;SDS011;43561;50.090;18.522;2023-03-15T15:40:48;2.35;;;1.73;;
57718;SDS011;43561;50.090;18.522;2023-03-15T15:50:50;6.07;;;1.92;;
57718;SDS011;43561;50.090;18.522;2023-03-15T16:00:51;1.85;;;1.35;;
57718;SDS011;43561;50.090;18.522;2023-03-15T16:10:53;12.35;;;3.30;;
57718;SDS011;43561;50.090;18.522;2023-03-15T16:20:56;11.65;;;4.18;;
57718;SDS011;43561;50.090;18.522;2023-03-15T16:30:59;13.25;;;5.10;;
57718;SDS011;43561;50.090;18.522;2023-03-15T16:41:01;13.18;;;4.85;;
57718;SDS011;43561;50.090;18.522;2023-03-15T16:51:03;47.70;;;17.92;;
57718;SDS011;43561;50.090;18.522;2023-03-15T17:01:07;13.95;;;7.95;;
57718;SDS011;43561;50.090;18.522;2023-03-15T17:11:10;15.85;;;7.07;;
57718;SDS011;43561;50.090;18.522;2023-03-15T17:21:12;11.68;;;4.47;;
57718;SDS011;43561;50.090;18.522;2023-03-15T17:31:17;39.55;;;21.10;;
57718;SDS011;43561;50.090;18.522;2023-03-15T17:41:26;33.23;;;13.90;;
57718;SDS011;43561;50.090;18.522;2023-03-15T17:51:31;12.65;;;8.25;;
57718;SDS011;43561;50.090;18.522;2023-03-15T18:01:35;19.48;;;11.63;;
57718;SDS011;43561;50.090;18.522;2023-03-15T18:11:38;30.83;;;15.15;;
57718;SDS011;43561;50.090;18.522;2023-03-15T18:21:40;51.30;;;19.48;;
57718;SDS011;43561;50.090;18.522;2023-03-15T18:31:42;60.00;;;23.15;;
57718;SDS011;43561;50.090;18.522;2023-03-15T18:41:44;41.60;;;21.48;;
57718;SDS011;43561;50.090;18.522;2023-03-15T18:51:46;77.38;;;30.75;;
57718;SDS011;43561;50.090;18.522;2023-03-15T19:01:48;104.18;;;46.15;;
57718;SDS011;43561;50.090;18.522;2023-03-15T19:11:50;121.72;;;51.00;;
57718;SDS011;43561;50.090;18.522;2023-03-15T19:21:52;139.82;;;46.88;;
57718;SDS011;43561;50.090;18.522;2023-03-15T19:31:54;96.80;;;42.03;;
57718;SDS011;43561;50.090;18.522;2023-03-15T19:41:56;115.72;;;47.70;;
57718;SDS011;43561;50.090;18.522;2023-03-15T19:51:58;116.65;;;52.22;;
57718;SDS011;43561;50.090;18.522;2023-03-15T20:02:00;86.50;;;38.78;;
57718;SDS011;43561;50.090;18.522;2023-03-15T20:12:02;39.42;;;20.38;;
57718;SDS011;43561;50.090;18.522;2023-03-15T20:22:11;43.93;;;16.60;;
57718;SDS011;43561;50.090;18.522;2023-03-15T20:32:13;45.08;;;16.52;;
57718;SDS011;43561;50.090;18.522;2023-03-15T20:42:16;52.38;;;19.88;;
57718;SDS011;43561;50.090;18.522;2023-03-15T20:52:20;34.50;;;18.70;;
57718;SDS011;43561;50.090;18.522;2023-03-15T21:02:22;53.15;;;20.23;;
57718;SDS011;43561;50.090;18.522;2023-03-15T21:12:23;61.00;;;29.83;;
57718;SDS011;43561;50.090;18.522;2023-03-15T21:22:26;67.57;;;30.65;;
57718;SDS011;43561;50.090;18.522;2023-03-15T21:32:27;50.97;;;27.15;;
57718;SDS011;43561;50.090;18.522;2023-03-15T21:42:29;56.63;;;28.58;;
57718;SDS011;43561;50.090;18.522;2023-03-15T21:52:33;37.90;;;21.10;;
57718;SDS011;43561;50.090;18.522;2023-03-15T22:02:35;62.03;;;30.70;;
57718;SDS011;43561;50.090;18.522;2023-03-15T22:12:37;45.33;;;22.92;;
57718;SDS011;43561;50.090;18.522;2023-03-15T22:22:38;49.53;;;23.00;;
57718;SDS011;43561;50.090;18.522;2023-03-15T22:32:40;36.70;;;18.75;;
57718;SDS011;43561;50.090;18.522;2023-03-15T22:42:42;37.25;;;16.92;;
57718;SDS011;43561;50.090;18.522;2023-03-15T22:52:44;18.33;;;14.00;;
57718;SDS011;43561;50.090;18.522;2023-03-15T23:02:46;32.22;;;16.10;;
57718;SDS011;43561;50.090;18.522;2023-03-15T23:12:48;35.53;;;16.15;;
57718;SDS011;43561;50.090;18.522;2023-03-15T23:22:50;21.90;;;12.73;;
57718;SDS011;43561;50.090;18.522;2023-03-15T23:32:52;14.93;;;12.63;;
57718;SDS011;43561;50.090;18.522;2023-03-15T23:42:54;32.20;;;14.18;;
57718;SDS011;43561;50.090;18.522;2023-03-15T23:52:56;25.65;;;15.93;;
